sensor_id;sensor_type;location;lat;lon;timestamp;pressure;altitude;pressure_sealevel;temperature;humidity
13314;BME280;6725;48.112;11.604;2023-06-14T00:01:44;94864.75;;;13.46;100.00
13314;BME280;6725;48.112;11.604;2023-06-14T00:04:11;94855.53;;;13.40;100.00
13314;BME280;6725;48.112;11.604;2023-06-14T00:06:36;94852.13;;;13.36;100.00
13314;BME280;6725;48.112;11.604;2023-06-14T00:09:01;94861.22;;;13.32;100.00
13314;BME280;6725;48.112;11.604;2023-06-14T00:11:27;94857.38;;;13.30;100.00
13314;BME280;6725;48.112;11.604;2023-06-14T00:13:52;94849.66;;;13.25;100.00
13314;BME280;6725;48.112;11.604;2023-06-14T00:16:18;94854.47;;;13.21;100.00
13314;BME280;6725;48.112;11.604;2023-06-14T00:18:45;94854.59;;;13.17;100.00
13314;BME280;6725;48.112;11.604;2023-06-14T00:21:11;94852.47;;;13.09;100.00
13314;BME280;6725;48.112;11.604;2023-06-14T00:23:37;94844.66;;;13.07;100.00
13314;BME280;6725;48.112;11.604;2023-06-14T00:26:03;94847.16;;;13.02;100.00
13314;BME280;6725;48.112;11.604;2023-06-14T00:28:28;94845.28;;;12.99;100.00
13314;BME280;6725;48.112;11.604;2023-06-14T00:30:53;94841.94;;;12.91;100.00
13314;BME280;6725;48.112;11.604;2023-06-14T00:33:19;94838.06;;;12.89;100.00
13314;BME280;6725;48.112;11.604;2023-06-14T00:35:44;94840.91;;;12.85;100.00
13314;BME280;6725;48.112;11.604;2023-06-14T00:38:10;94843.75;;;12.82;100.00
13314;BME280;6725;48.112;11.604;2023-06-14T00:40:35;94845.78;;;12.78;100.00
13314;BME280;6725;48.112;11.604;2023-06-14T00:43:00;94844.00;;;12.71;100.00
13314;BME280;6725;48.112;11.604;2023-06-14T00:45:26;94853.44;;;12.70;100.00
13314;BME280;6725;48.112;11.604;2023-06-14T00:47:51;94852.31;;;12.68;100.00
13314;BME280;6725;48.112;11.604;2023-06-14T00:50:20;94841.78;;;12.66;100.00
13314;BME280;6725;48.112;11.604;2023-06-14T00:52:47;94847.69;;;12.65;100.00
13314;BME280;6725;48.112;11.604;2023-06-14T00:55:12;94845.81;;;12.62;100.00
13314;BME280;6725;48.112;11.604;2023-06-14T00:57:38;94845.03;;;12.61;100.00
13314;BME280;6725;48.112;11.604;2023-06-14T01:00:05;94842.72;;;12.60;100.00
13314;BME280;6725;48.112;11.604;2023-06-14T01:02:37;94849.09;;;12.57;100.00
13314;BME280;6725;48.112;11.604;2023-06-14T01:05:02;94849.09;;;12.57;100.00
13314;BME280;6725;48.112;11.604;2023-06-14T01:07:54;94848.91;;;12.48;100.00
13314;BME280;6725;48.112;11.604;2023-06-14T01:15:36;94848.91;;;12.32;100.00
13314;BME280;6725;48.112;11.604;2023-06-14T01:18:03;94850.59;;;12.26;100.00
13314;BME280;6725;48.112;11.604;2023-06-14T01:20:31;94846.66;;;12.27;100.00
13314;BME280;6725;48.112;11.604;2023-06-14T01:22:57;94841.72;;;12.22;100.00
13314;BME280;6725;48.112;11.604;2023-06-14T01:25:23;94843.75;;;12.18;100.00
13314;BME280;6725;48.112;11.604;2023-06-14T01:27:51;94845.81;;;12.14;100.00
13314;BME280;6725;48.112;11.604;2023-06-14T01:30:18;94850.19;;;12.11;100.00
13314;BME280;6725;48.112;11.604;2023-06-14T01:32:45;94838.44;;;12.11;100.00
13314;BME280;6725;48.112;11.604;2023-06-14T01:35:11;94848.03;;;12.03;100.00
13314;BME280;6725;48.112;11.604;2023-06-14T01:37:37;94831.59;;;12.03;100.00
13314;BME280;6725;48.112;11.604;2023-06-14T01:40:05;94827.81;;;11.97;100.00
13314;BME280;6725;48.112;11.604;2023-06-14T01:42:34;94831.84;;;11.92;100.00
13314;BME280;6725;48.112;11.604;2023-06-14T01:45:02;94835.34;;;11.93;100.00
13314;BME280;6725;48.112;11.604;2023-06-14T01:47:27;94828.84;;;11.87;100.00
13314;BME280;6725;48.112;11.604;2023-06-14T01:49:53;94830.44;;;11.84;100.00
13314;BME280;6725;48.112;11.604;2023-06-14T01:52:18;94828.91;;;11.83;100.00
13314;BME280;6725;48.112;11.604;2023-06-14T01:54:44;94821.97;;;11.79;100.00
13314;BME280;6725;48.112;11.604;2023-06-14T01:57:11;94829.06;;;11.76;100.00
13314;BME280;6725;48.112;11.604;2023-06-14T01:59:37;94832.22;;;11.75;100.00
13314;BME280;6725;48.112;11.604;2023-06-14T02:02:03;94837.84;;;11.68;100.00
13314;BME280;6725;48.112;11.604;2023-06-14T02:04:28;94833.94;;;11.69;100.00
13314;BME280;6725;48.112;11.604;2023-06-14T02:06:53;94835.47;;;11.70;100.00
13314;BME280;6725;48.112;11.604;2023-06-14T02:09:19;94833.25;;;11.65;100.00
13314;BME280;6725;48.112;11.604;2023-06-14T02:11:44;94842.28;;;11.62;100.00
13314;BME280;6725;48.112;11.604;2023-06-14T02:14:10;94827.06;;;11.61;100.00
13314;BME280;6725;48.112;11.604;2023-06-14T02:16:37;94830.63;;;11.58;100.00
13314;BME280;6725;48.112;11.604;2023-06-14T02:19:04;94831.81;;;11.57;100.00
13314;BME280;6725;48.112;11.604;2023-06-14T02:21:29;94831.06;;;11.56;100.00
13314;BME280;6725;48.112;11.604;2023-06-14T02:23:55;94827.19;;;11.54;100.00
13314;BME280;6725;48.112;11.604;2023-06-14T02:26:21;94821.78;;;11.50;100.00
13314;BME280;6725;48.112;11.604;2023-06-14T02:28:47;94826.16;;;11.48;100.00
13314;BME280;6725;48.112;11.604;2023-06-14T02:31:13;94823.41;;;11.48;100.00
13314;BME280;6725;48.112;11.604;2023-06-14T02:33:38;94821.09;;;11.46;100.00
13314;BME280;6725;48.112;11.604;2023-06-14T02:36:04;94824.25;;;11.45;100.00
13314;BME280;6725;48.112;11.604;2023-06-14T02:38:29;94826.63;;;11.43;100.00
13314;BME280;6725;48.112;11.604;2023-06-14T02:40:55;94831.34;;;11.42;100.00
13314;BME280;6725;48.112;11.604;2023-06-14T02:43:20;94830.22;;;11.40;100.00
13314;BME280;6725;48.112;11.604;2023-06-14T02:45:45;94828.66;;;11.39;100.00
13314;BME280;6725;48.112;11.604;2023-06-14T02:48:11;94826.06;;;11.32;100.00
13314;BME280;6725;48.112;11.604;2023-06-14T02:50:36;94825.47;;;11.24;100.00
13314;BME280;6725;48.112;11.604;2023-06-14T02:53:01;94836.63;;;11.14;100.00
13314;BME280;6725;48.112;11.604;2023-06-14T02:55:28;94841.50;;;11.03;100.00
13314;BME280;6725;48.112;11.604;2023-06-14T02:57:54;94832.16;;;11.00;100.00
13314;BME280;6725;48.112;11.604;2023-06-14T03:00:20;94837.75;;;10.93;100.00
13314;BME280;6725;48.112;11.604;2023-06-14T03:02:45;94834.75;;;10.88;100.00
13314;BME280;6725;48.112;11.604;2023-06-14T03:05:11;94845.81;;;10.81;100.00
13314;BME280;6725;48.112;11.604;2023-06-14T03:07:38;94833.81;;;10.75;100.00
13314;BME280;6725;48.112;11.604;2023-06-14T03:10:07;94834.59;;;10.75;100.00
13314;BME280;6725;48.112;11.604;2023-06-14T03:12:34;94841.94;;;10.78;100.00
13314;BME280;6725;48.112;11.604;2023-06-14T03:15:01;94842.03;;;10.75;100.00
13314;BME280;6725;48.112;11.604;2023-06-14T03:17:26;94845.53;;;10.75;100.00
13314;BME280;6725;48.112;11.604;2023-06-14T03:19:55;94839.63;;;10.77;100.00
13314;BME280;6725;48.112;11.604;2023-06-14T03:22:20;94847.47;;;10.75;100.00
13314;BME280;6725;48.112;11.604;2023-06-14T03:24:47;94852.13;;;10.78;100.00
13314;BME280;6725;48.112;11.604;2023-06-14T03:27:13;94853.66;;;10.79;100.00
13314;BME280;6725;48.112;11.604;2023-06-14T03:29:39;94861.00;;;10.82;100.00
13314;BME280;6725;48.112;11.604;2023-06-14T03:32:05;94863.13;;;10.94;100.00
13314;BME280;6725;48.112;11.604;2023-06-14T03:34:31;94863.41;;;10.99;100.00
13314;BME280;6725;48.112;11.604;2023-06-14T03:36:56;94858.38;;;11.17;100.00
13314;BME280;6725;48.112;11.604;2023-06-14T03:39:21;94860.28;;;11.40;100.00
13314;BME280;6725;48.112;11.604;2023-06-14T03:41:47;94860.66;;;11.61;100.00
13314;BME280;6725;48.112;11.604;2023-06-14T03:44:15;94860.97;;;11.83;100.00
13314;BME280;6725;48.112;11.604;2023-06-14T03:46:40;94861.00;;;11.99;100.00
13314;BME280;6725;48.112;11.604;2023-06-14T03:49:06;94857.28;;;12.25;100.00
13314;BME280;6725;48.112;11.604;2023-06-14T03:51:32;94858.38;;;12.43;100.00
13314;BME280;6725;48.112;11.604;2023-06-14T03:53:57;94855.06;;;12.68;100.00
13314;BME280;6725;48.112;11.604;2023-06-14T03:56:22;94863.59;;;13.02;100.00
13314;BME280;6725;48.112;11.604;2023-06-14T03:58:48;94867.03;;;13.34;100.00
13314;BME280;6725;48.112;11.604;2023-06-14T04:01:14;94879.59;;;13.48;100.00
13314;BME280;6725;48.112;11.604;2023-06-14T04:03:39;94881.66;;;13.85;100.00
13314;BME280;6725;48.112;11.604;2023-06-14T04:06:05;94892.13;;;14.03;100.00
13314;BME280;6725;48.112;11.604;2023-06-14T04:08:31;94883.28;;;14.36;100.00
13314;BME280;6725;48.112;11.604;2023-06-14T04:10:57;94884.59;;;14.44;100.00
13314;BME280;6725;48.112;11.604;2023-06-14T04:13:22;94888.00;;;14.48;100.00
13314;BME280;6725;48.112;11.604;2023-06-14T04:15:47;94898.88;;;14.64;100.00
13314;BME280;6725;48.112;11.604;2023-06-14T04:18:13;94905.53;;;15.01;100.00
13314;BME280;6725;48.112;11.604;2023-06-14T04:20:38;94906.13;;;15.30;100.00
13314;BME280;6725;48.112;11.604;2023-06-14T04:23:17;94908.22;;;15.38;100.00
13314;BME280;6725;48.112;11.604;2023-06-14T04:25:46;94908.09;;;15.63;100.00
13314;BME280;6725;48.112;11.604;2023-06-14T04:28:13;94908.88;;;15.64;100.00
13314;BME280;6725;48.112;11.604;2023-06-14T04:30:40;94911.97;;;15.87;100.00
13314;BME280;6725;48.112;11.604;2023-06-14T04:33:05;94913.00;;;16.11;100.00
13314;BME280;6725;48.112;11.604;2023-06-14T04:35:31;94923.13;;;16.36;100.00
13314;BME280;6725;48.112;11.604;2023-06-14T04:38:01;94917.56;;;16.49;100.00
13314;BME280;6725;48.112;11.604;2023-06-14T04:40:29;94915.59;;;16.36;100.00
13314;BME280;6725;48.112;11.604;2023-06-14T04:42:55;94908.97;;;16.47;100.00
13314;BME280;6725;48.112;11.604;2023-06-14T04:45:20;94905.44;;;16.95;100.00
13314;BME280;6725;48.112;11.604;2023-06-14T04:47:47;94909.66;;;17.26;100.00
13314;BME280;6725;48.112;11.604;2023-06-14T04:50:12;94905.28;;;17.56;99.90
13314;BME280;6725;48.112;11.604;2023-06-14T04:52:38;94913.88;;;17.85;97.26
13314;BME280;6725;48.112;11.604;2023-06-14T04:55:04;94925.22;;;17.87;93.96
13314;BME280;6725;48.112;11.604;2023-06-14T04:57:30;94919.66;;;18.05;92.02
13314;BME280;6725;48.112;11.604;2023-06-14T04:59:56;94919.53;;;18.08;91.53
13314;BME280;6725;48.112;11.604;2023-06-14T05:02:23;94920.88;;;18.13;93.32
13314;BME280;6725;48.112;11.604;2023-06-14T05:04:49;94916.25;;;18.37;89.21
13314;BME280;6725;48.112;11.604;2023-06-14T05:07:15;94923.22;;;18.74;87.61
13314;BME280;6725;48.112;11.604;2023-06-14T05:09:40;94931.00;;;18.84;86.08
13314;BME280;6725;48.112;11.604;2023-06-14T05:12:06;94924.72;;;18.75;84.54
13314;BME280;6725;48.112;11.604;2023-06-14T05:14:35;94936.72;;;19.46;83.01
13314;BME280;6725;48.112;11.604;2023-06-14T05:17:00;94933.59;;;19.53;81.75
13314;BME280;6725;48.112;11.604;2023-06-14T05:19:25;94934.69;;;19.70;79.23
13314;BME280;6725;48.112;11.604;2023-06-14T05:21:51;94938.56;;;19.87;77.89
13314;BME280;6725;48.112;11.604;2023-06-14T05:24:17;94940.19;;;20.17;77.16
13314;BME280;6725;48.112;11.604;2023-06-14T05:26:43;94937.53;;;20.37;75.79
13314;BME280;6725;48.112;11.604;2023-06-14T05:29:08;94938.47;;;20.34;75.01
13314;BME280;6725;48.112;11.604;2023-06-14T05:31:34;94939.06;;;20.67;74.49
13314;BME280;6725;48.112;11.604;2023-06-14T05:33:59;94938.06;;;21.14;72.83
13314;BME280;6725;48.112;11.604;2023-06-14T05:36:25;94928.19;;;21.47;71.18
13314;BME280;6725;48.112;11.604;2023-06-14T05:38:50;94936.72;;;21.44;70.53
13314;BME280;6725;48.112;11.604;2023-06-14T05:41:16;94943.81;;;21.79;68.47
13314;BME280;6725;48.112;11.604;2023-06-14T05:43:41;94935.28;;;21.48;68.49
13314;BME280;6725;48.112;11.604;2023-06-14T05:46:07;94945.03;;;21.78;68.15
13314;BME280;6725;48.112;11.604;2023-06-14T05:48:32;94943.16;;;21.35;67.20
13314;BME280;6725;48.112;11.604;2023-06-14T05:50:58;94947.25;;;21.20;68.94
13314;BME280;6725;48.112;11.604;2023-06-14T05:53:24;94944.31;;;21.63;69.22
13314;BME280;6725;48.112;11.604;2023-06-14T05:55:50;94948.56;;;21.24;69.60
13314;BME280;6725;48.112;11.604;2023-06-14T05:58:20;94942.03;;;21.27;66.38
13314;BME280;6725;48.112;11.604;2023-06-14T06:00:45;94953.44;;;20.51;69.97
13314;BME280;6725;48.112;11.604;2023-06-14T06:03:11;94942.91;;;21.19;70.08
13314;BME280;6725;48.112;11.604;2023-06-14T06:05:38;94941.97;;;21.96;68.93
13314;BME280;6725;48.112;11.604;2023-06-14T06:08:04;94949.22;;;21.88;66.34
13314;BME280;6725;48.112;11.604;2023-06-14T06:10:29;94945.00;;;22.38;64.38
13314;BME280;6725;48.112;11.604;2023-06-14T06:12:55;94952.69;;;21.83;66.12
13314;BME280;6725;48.112;11.604;2023-06-14T06:15:20;94956.28;;;21.69;67.98
13314;BME280;6725;48.112;11.604;2023-06-14T06:17:46;94956.69;;;21.62;68.56
13314;BME280;6725;48.112;11.604;2023-06-14T06:20:11;94974.06;;;22.37;63.40
13314;BME280;6725;48.112;11.604;2023-06-14T06:22:38;94964.44;;;22.59;61.27
13314;BME280;6725;48.112;11.604;2023-06-14T06:25:03;94962.19;;;22.88;60.95
13314;BME280;6725;48.112;11.604;2023-06-14T06:27:29;94966.06;;;22.71;60.38
13314;BME280;6725;48.112;11.604;2023-06-14T06:29:54;94965.69;;;22.58;60.35
13314;BME280;6725;48.112;11.604;2023-06-14T06:32:20;94966.47;;;21.72;66.17
13314;BME280;6725;48.112;11.604;2023-06-14T06:34:45;94976.72;;;21.86;66.32
13314;BME280;6725;48.112;11.604;2023-06-14T06:37:11;94972.44;;;22.05;64.67
13314;BME280;6725;48.112;11.604;2023-06-14T06:39:36;94975.13;;;22.66;61.91
13314;BME280;6725;48.112;11.604;2023-06-14T06:42:02;94971.28;;;22.37;62.85
13314;BME280;6725;48.112;11.604;2023-06-14T06:44:27;94974.41;;;22.71;62.48
13314;BME280;6725;48.112;11.604;2023-06-14T06:46:52;94977.75;;;22.75;63.45
13314;BME280;6725;48.112;11.604;2023-06-14T06:49:18;94975.28;;;23.39;58.29
13314;BME280;6725;48.112;11.604;2023-06-14T06:51:43;94984.72;;;24.53;53.48
13314;BME280;6725;48.112;11.604;2023-06-14T06:54:10;94979.25;;;25.08;53.65
13314;BME280;6725;48.112;11.604;2023-06-14T06:56:35;94984.34;;;25.59;50.10
13314;BME280;6725;48.112;11.604;2023-06-14T06:59:01;94984.09;;;25.02;51.15
13314;BME280;6725;48.112;11.604;2023-06-14T07:01:27;94984.59;;;25.17;52.64
13314;BME280;6725;48.112;11.604;2023-06-14T07:03:54;94986.63;;;25.11;52.88
13314;BME280;6725;48.112;11.604;2023-06-14T07:06:20;94978.50;;;24.91;52.94
13314;BME280;6725;48.112;11.604;2023-06-14T07:08:45;94981.00;;;25.66;50.10
13314;BME280;6725;48.112;11.604;2023-06-14T07:11:13;94991.72;;;25.34;49.37
13314;BME280;6725;48.112;11.604;2023-06-14T07:13:38;94987.34;;;26.51;47.23
13314;BME280;6725;48.112;11.604;2023-06-14T07:16:04;94982.56;;;25.56;48.40
13314;BME280;6725;48.112;11.604;2023-06-14T07:18:29;94986.06;;;26.01;48.65
13314;BME280;6725;48.112;11.604;2023-06-14T07:20:56;94995.25;;;25.79;48.09
13314;BME280;6725;48.112;11.604;2023-06-14T07:23:22;94994.78;;;25.64;48.17
13314;BME280;6725;48.112;11.604;2023-06-14T07:25:47;94997.06;;;26.50;46.58
13314;BME280;6725;48.112;11.604;2023-06-14T07:28:13;95004.22;;;26.40;47.11
13314;BME280;6725;48.112;11.604;2023-06-14T07:30:38;94996.19;;;27.77;41.61
13314;BME280;6725;48.112;11.604;2023-06-14T07:33:03;94995.88;;;27.56;40.74
13314;BME280;6725;48.112;11.604;2023-06-14T07:35:29;95011.84;;;27.37;40.41
13314;BME280;6725;48.112;11.604;2023-06-14T07:37:54;95004.00;;;26.90;41.74
13314;BME280;6725;48.112;11.604;2023-06-14T07:40:20;95002.34;;;27.46;40.38
13314;BME280;6725;48.112;11.604;2023-06-14T07:42:45;95006.78;;;26.38;42.47
13314;BME280;6725;48.112;11.604;2023-06-14T07:45:13;95000.44;;;26.89;42.56
13314;BME280;6725;48.112;11.604;2023-06-14T07:47:39;95014.19;;;26.87;41.47
13314;BME280;6725;48.112;11.604;2023-06-14T07:50:05;95008.91;;;26.78;39.27
13314;BME280;6725;48.112;11.604;2023-06-14T07:52:30;95008.13;;;27.53;37.89
13314;BME280;6725;48.112;11.604;2023-06-14T07:54:56;95011.63;;;27.65;39.56
13314;BME280;6725;48.112;11.604;2023-06-14T07:57:22;95006.03;;;27.89;39.92
13314;BME280;6725;48.112;11.604;2023-06-14T07:59:47;95014.59;;;27.72;36.05
13314;BME280;6725;48.112;11.604;2023-06-14T08:02:13;95014.13;;;27.39;37.25
13314;BME280;6725;48.112;11.604;2023-06-14T08:04:38;95012.28;;;25.98;37.48
13314;BME280;6725;48.112;11.604;2023-06-14T08:07:04;95002.09;;;26.68;37.59
13314;BME280;6725;48.112;11.604;2023-06-14T08:09:29;95007.63;;;26.79;35.83
13314;BME280;6725;48.112;11.604;2023-06-14T08:11:55;95015.44;;;26.40;35.48
13314;BME280;6725;48.112;11.604;2023-06-14T08:14:21;95009.78;;;25.67;36.44
13314;BME280;6725;48.112;11.604;2023-06-14T08:16:46;95012.81;;;26.64;36.12
13314;BME280;6725;48.112;11.604;2023-06-14T08:19:12;95011.91;;;26.34;37.42
13314;BME280;6725;48.112;11.604;2023-06-14T08:21:37;95013.13;;;27.36;35.01
13314;BME280;6725;48.112;11.604;2023-06-14T08:24:03;95021.28;;;27.69;32.88
13314;BME280;6725;48.112;11.604;2023-06-14T08:26:29;95019.47;;;26.50;34.73
13314;BME280;6725;48.112;11.604;2023-06-14T08:28:55;95025.47;;;26.76;35.03
13314;BME280;6725;48.112;11.604;2023-06-14T08:31:21;95021.78;;;27.68;34.33
13314;BME280;6725;48.112;11.604;2023-06-14T08:33:47;95021.06;;;29.19;31.84
13314;BME280;6725;48.112;11.604;2023-06-14T08:36:12;95034.75;;;28.73;31.41
13314;BME280;6725;48.112;11.604;2023-06-14T08:38:39;95020.72;;;28.00;33.06
13314;BME280;6725;48.112;11.604;2023-06-14T08:41:05;95030.44;;;28.23;32.44
13314;BME280;6725;48.112;11.604;2023-06-14T08:43:31;95016.50;;;27.59;33.99
13314;BME280;6725;48.112;11.604;2023-06-14T08:46:03;95033.81;;;28.16;31.05
13314;BME280;6725;48.112;11.604;2023-06-14T08:48:28;95034.31;;;28.45;31.53
13314;BME280;6725;48.112;11.604;2023-06-14T08:50:55;95033.00;;;27.97;30.71
13314;BME280;6725;48.112;11.604;2023-06-14T08:53:28;95029.25;;;27.30;32.82
13314;BME280;6725;48.112;11.604;2023-06-14T08:55:54;95034.22;;;27.48;33.13
13314;BME280;6725;48.112;11.604;2023-06-14T08:58:21;95040.69;;;26.92;32.72
13314;BME280;6725;48.112;11.604;2023-06-14T09:00:49;95018.38;;;28.04;32.26
13314;BME280;6725;48.112;11.604;2023-06-14T09:03:17;95030.69;;;28.25;30.93
13314;BME280;6725;48.112;11.604;2023-06-14T09:05:45;95019.81;;;29.02;31.24
13314;BME280;6725;48.112;11.604;2023-06-14T09:08:11;95026.25;;;29.47;31.60
13314;BME280;6725;48.112;11.604;2023-06-14T09:10:36;95038.91;;;29.40;30.29
13314;BME280;6725;48.112;11.604;2023-06-14T09:13:03;95042.25;;;28.65;31.18
13314;BME280;6725;48.112;11.604;2023-06-14T09:15:30;95028.28;;;27.87;31.75
13314;BME280;6725;48.112;11.604;2023-06-14T09:17:56;95026.66;;;26.92;33.13
13314;BME280;6725;48.112;11.604;2023-06-14T09:20:24;95044.53;;;27.35;31.68
13314;BME280;6725;48.112;11.604;2023-06-14T09:22:49;95038.94;;;27.29;32.93
13314;BME280;6725;48.112;11.604;2023-06-14T09:25:15;95041.78;;;28.12;32.06
13314;BME280;6725;48.112;11.604;2023-06-14T09:27:41;95027.84;;;27.77;33.72
13314;BME280;6725;48.112;11.604;2023-06-14T09:30:09;95031.03;;;28.16;32.69
13314;BME280;6725;48.112;11.604;2023-06-14T09:32:38;95026.94;;;28.17;32.23
13314;BME280;6725;48.112;11.604;2023-06-14T09:35:07;95023.94;;;26.07;36.74
13314;BME280;6725;48.112;11.604;2023-06-14T09:37:34;95036.72;;;25.53;37.61
13314;BME280;6725;48.112;11.604;2023-06-14T09:40:01;95037.97;;;25.96;37.33
13314;BME280;6725;48.112;11.604;2023-06-14T09:42:26;95043.63;;;26.70;36.41
13314;BME280;6725;48.112;11.604;2023-06-14T09:44:55;95051.22;;;25.90;36.95
13314;BME280;6725;48.112;11.604;2023-06-14T09:47:21;95045.34;;;25.16;38.41
13314;BME280;6725;48.112;11.604;2023-06-14T09:49:49;95030.34;;;25.25;39.49
13314;BME280;6725;48.112;11.604;2023-06-14T09:52:18;95037.56;;;26.49;37.25
13314;BME280;6725;48.112;11.604;2023-06-14T09:54:45;95049.09;;;26.29;37.17
13314;BME280;6725;48.112;11.604;2023-06-14T09:57:15;95046.44;;;26.64;35.68
13314;BME280;6725;48.112;11.604;2023-06-14T09:59:45;95041.16;;;28.01;34.31
13314;BME280;6725;48.112;11.604;2023-06-14T10:02:21;95041.00;;;28.17;33.90
13314;BME280;6725;48.112;11.604;2023-06-14T10:04:55;95042.97;;;27.69;34.07
13314;BME280;6725;48.112;11.604;2023-06-14T10:07:23;95044.19;;;27.44;34.00
13314;BME280;6725;48.112;11.604;2023-06-14T10:09:52;95048.56;;;26.36;35.05
13314;BME280;6725;48.112;11.604;2023-06-14T10:12:18;95048.03;;;26.43;35.35
13314;BME280;6725;48.112;11.604;2023-06-14T10:14:51;95035.22;;;24.44;36.36
13314;BME280;6725;48.112;11.604;2023-06-14T10:17:47;95039.00;;;25.60;35.16
13314;BME280;6725;48.112;11.604;2023-06-14T10:20:32;95040.00;;;25.13;36.71
13314;BME280;6725;48.112;11.604;2023-06-14T10:23:08;95034.94;;;25.17;35.72
13314;BME280;6725;48.112;11.604;2023-06-14T10:25:35;95036.38;;;26.28;35.53
13314;BME280;6725;48.112;11.604;2023-06-14T10:31:04;95032.56;;;27.29;35.18
13314;BME280;6725;48.112;11.604;2023-06-14T10:33:31;95030.19;;;26.46;35.62
13314;BME280;6725;48.112;11.604;2023-06-14T10:39:06;95029.16;;;26.49;35.90
13314;BME280;6725;48.112;11.604;2023-06-14T10:41:40;95036.97;;;25.55;37.13
13314;BME280;6725;48.112;11.604;2023-06-14T10:46:37;95036.22;;;24.41;39.16
13314;BME280;6725;48.112;11.604;2023-06-14T10:49:03;95032.91;;;25.45;38.20
13314;BME280;6725;48.112;11.604;2023-06-14T10:51:29;95030.06;;;26.00;38.09
13314;BME280;6725;48.112;11.604;2023-06-14T10:53:56;95039.47;;;26.19;40.18
13314;BME280;6725;48.112;11.604;2023-06-14T10:56:31;95022.03;;;27.00;37.58
13314;BME280;6725;48.112;11.604;2023-06-14T10:58:57;95029.56;;;25.91;39.03
13314;BME280;6725;48.112;11.604;2023-06-14T11:04:39;95027.88;;;27.72;35.86
13314;BME280;6725;48.112;11.604;2023-06-14T11:10:10;95024.66;;;26.24;38.91
13314;BME280;6725;48.112;11.604;2023-06-14T11:12:41;95034.69;;;25.54;39.29
13314;BME280;6725;48.112;11.604;2023-06-14T11:15:08;95020.53;;;24.60;43.19
13314;BME280;6725;48.112;11.604;2023-06-14T11:17:33;95014.09;;;25.51;42.56
13314;BME280;6725;48.112;11.604;2023-06-14T11:20:12;95021.19;;;25.74;40.31
13314;BME280;6725;48.112;11.604;2023-06-14T11:22:42;95023.91;;;26.86;39.22
13314;BME280;6725;48.112;11.604;2023-06-14T11:25:14;95022.00;;;27.05;38.86
13314;BME280;6725;48.112;11.604;2023-06-14T11:27:42;95042.03;;;26.06;40.23
13314;BME280;6725;48.112;11.604;2023-06-14T11:30:08;95027.00;;;26.09;38.48
13314;BME280;6725;48.112;11.604;2023-06-14T11:32:40;95016.34;;;27.11;37.18
13314;BME280;6725;48.112;11.604;2023-06-14T11:35:06;95032.84;;;26.79;37.25
13314;BME280;6725;48.112;11.604;2023-06-14T11:37:32;95022.25;;;27.07;37.72
13314;BME280;6725;48.112;11.604;2023-06-14T11:40:02;95019.09;;;27.16;36.89
13314;BME280;6725;48.112;11.604;2023-06-14T11:42:33;95015.78;;;26.77;36.05
13314;BME280;6725;48.112;11.604;2023-06-14T11:44:59;95014.91;;;26.47;36.08
13314;BME280;6725;48.112;11.604;2023-06-14T11:47:24;95027.59;;;26.59;36.25
13314;BME280;6725;48.112;11.604;2023-06-14T11:49:50;95037.75;;;25.50;37.16
13314;BME280;6725;48.112;11.604;2023-06-14T11:52:16;95015.09;;;25.59;36.65
13314;BME280;6725;48.112;11.604;2023-06-14T11:54:42;95010.00;;;25.19;37.92
13314;BME280;6725;48.112;11.604;2023-06-14T11:57:07;95009.75;;;25.11;38.16
13314;BME280;6725;48.112;11.604;2023-06-14T11:59:39;95016.06;;;24.84;38.20
13314;BME280;6725;48.112;11.604;2023-06-14T12:02:06;95015.59;;;25.08;38.87
13314;BME280;6725;48.112;11.604;2023-06-14T12:04:32;95013.00;;;24.77;40.53
13314;BME280;6725;48.112;11.604;2023-06-14T12:06:57;95023.47;;;23.45;41.90
13314;BME280;6725;48.112;11.604;2023-06-14T12:09:34;95017.16;;;23.19;43.88
13314;BME280;6725;48.112;11.604;2023-06-14T12:12:00;95009.50;;;23.39;43.38
13314;BME280;6725;48.112;11.604;2023-06-14T12:14:30;95018.91;;;23.42;43.72
13314;BME280;6725;48.112;11.604;2023-06-14T12:17:04;95011.63;;;23.55;45.78
13314;BME280;6725;48.112;11.604;2023-06-14T12:19:31;95019.50;;;23.57;44.72
13314;BME280;6725;48.112;11.604;2023-06-14T12:21:59;95018.44;;;23.49;45.40
13314;BME280;6725;48.112;11.604;2023-06-14T12:24:28;95007.66;;;23.31;45.06
13314;BME280;6725;48.112;11.604;2023-06-14T12:26:54;95014.78;;;23.37;45.23
13314;BME280;6725;48.112;11.604;2023-06-14T12:29:22;95017.50;;;23.26;44.72
13314;BME280;6725;48.112;11.604;2023-06-14T12:31:48;95010.69;;;23.33;45.75
13314;BME280;6725;48.112;11.604;2023-06-14T12:34:14;95007.28;;;23.49;44.20
13314;BME280;6725;48.112;11.604;2023-06-14T12:36:39;95008.19;;;23.35;43.21
13314;BME280;6725;48.112;11.604;2023-06-14T12:39:09;95005.94;;;23.39;43.22
13314;BME280;6725;48.112;11.604;2023-06-14T12:41:34;94999.63;;;23.80;43.98
13314;BME280;6725;48.112;11.604;2023-06-14T12:44:00;95008.63;;;23.64;42.53
13314;BME280;6725;48.112;11.604;2023-06-14T12:46:30;95013.13;;;23.51;41.94
13314;BME280;6725;48.112;11.604;2023-06-14T12:48:56;95001.59;;;23.32;43.19
13314;BME280;6725;48.112;11.604;2023-06-14T12:51:21;95001.34;;;23.36;43.29
13314;BME280;6725;48.112;11.604;2023-06-14T12:53:47;95023.53;;;23.50;43.50
13314;BME280;6725;48.112;11.604;2023-06-14T12:56:14;95016.41;;;23.49;42.59
13314;BME280;6725;48.112;11.604;2023-06-14T12:58:39;95011.53;;;23.81;42.68
13314;BME280;6725;48.112;11.604;2023-06-14T13:01:05;95019.66;;;23.79;43.14
13314;BME280;6725;48.112;11.604;2023-06-14T13:03:30;95002.63;;;23.35;44.44
13314;BME280;6725;48.112;11.604;2023-06-14T13:05:56;95011.78;;;23.41;44.65
13314;BME280;6725;48.112;11.604;2023-06-14T13:08:21;95022.88;;;23.30;42.76
13314;BME280;6725;48.112;11.604;2023-06-14T13:10:47;95015.75;;;23.65;43.05
13314;BME280;6725;48.112;11.604;2023-06-14T13:13:13;95014.81;;;23.74;41.91
13314;BME280;6725;48.112;11.604;2023-06-14T13:15:38;95023.72;;;23.78;42.89